EPLB

Details ICAO EPLB (LUZ)
Name Lublin
Region Poland
Timezone Europe/Warsaw (UTC+2.0)
Plans Departing 107
Arriving 81
Stats Elevation 633 ft / 193 m (AMSL)
Location 51.236345° 22.702508°
Runways 2
Magnetic Variation 6.127° E
Sunrise 2018-05-22 02:30:45 UTC / 2018-05-22 04:30:45 Local
Sunset 2018-05-22 18:23:49 UTC / 2018-05-22 20:23:49 Local
Advertisement - Login to hide

Runways

ID Width Length Bearing (true) Bearing (mag) Surface Threshold Offset Overrun Length
06 222 ft / 68 m 3,445 ft / 1,050 m 62.25° 56.12° Grass 0 ft / 0 m 0 ft / 0 m
07 148 ft / 45 m 8,277 ft / 2,523 m 77.06° 70.93° Asphalt 72 ft / 22 m 0 ft / 0 m
24 222 ft / 68 m 3,445 ft / 1,050 m 242.26° 236.13° Grass 0 ft / 0 m 0 ft / 0 m
25 148 ft / 45 m 8,277 ft / 2,523 m 257.09° 250.96° Asphalt 66 ft / 20 m 0 ft / 0 m

Map

Weather


0- 5 10 15 20 25 30 35+ Temperature / ° C

Clouds and Precipitation
Forecast for 2018-05-22 12:00 UTC. Updated 2 hours ago

Ground ~20,000 ft ~40,000 ft Winds

METAR

EPLB 221030Z 12008KT 9999 FEW033 19/13 Q1018

TAF

Not found

Frequencies

Tower 128.25 MHz LUBLIN TOWER
Warning: Do not use this data for real-world aviation or navigation. No guarantee of current accuracy is given.